createdAt,value
2017-02-26T00:02:21.168Z,1001.7
2017-02-26T00:04:53.650Z,1001.7
2017-02-26T00:07:26.571Z,1001.7
2017-02-26T00:09:59.477Z,1001.5
2017-02-26T00:12:31.951Z,1001.6
2017-02-26T00:15:04.856Z,1001.5
2017-02-26T00:17:37.363Z,1001.4
2017-02-26T00:20:09.857Z,1001.5
2017-02-26T00:22:42.331Z,1001.4
2017-02-26T00:25:14.820Z,1001.4
2017-02-26T00:27:47.297Z,1001.4
2017-02-26T00:30:19.806Z,1001.3
2017-02-26T00:32:52.301Z,1001.4
2017-02-26T00:35:24.781Z,1001.3
2017-02-26T00:37:57.277Z,1001.3
2017-02-26T00:40:30.202Z,1001.3
2017-02-26T00:43:03.113Z,1001.2
2017-02-26T00:45:35.610Z,1001.2
2017-02-26T00:48:08.503Z,1001.2
2017-02-26T00:50:41.000Z,1001.2
2017-02-26T00:53:13.484Z,1001.2
2017-02-26T00:55:45.961Z,1001.2
2017-02-26T00:58:18.440Z,1001.2
2017-02-26T01:00:50.945Z,1001.2
2017-02-26T01:03:23.427Z,1001.2
2017-02-26T01:05:55.903Z,1001.1
2017-02-26T01:08:28.583Z,1001.1
2017-02-26T01:11:01.074Z,1001.1
2017-02-26T01:13:33.552Z,1001
2017-02-26T01:16:06.045Z,1001
2017-02-26T01:18:38.544Z,1001.1
2017-02-26T01:21:11.013Z,1001.1
2017-02-26T01:23:43.516Z,1001
2017-02-26T01:26:16.002Z,1001
2017-02-26T01:28:48.490Z,1001.1
2017-02-26T01:31:20.985Z,1001
2017-02-26T01:33:53.894Z,1001
2017-02-26T01:36:26.398Z,1001
2017-02-26T01:38:58.887Z,1001
2017-02-26T01:41:31.395Z,1001
2017-02-26T01:44:03.893Z,1001
2017-02-26T01:46:36.375Z,1000.9
2017-02-26T01:49:08.879Z,1000.9
2017-02-26T01:51:41.815Z,1000.9
2017-02-26T01:54:14.318Z,1000.9
2017-02-26T01:56:46.806Z,1000.9
2017-02-26T01:59:19.272Z,1000.9
2017-02-26T02:01:51.769Z,1000.9
2017-02-26T02:04:24.252Z,1000.8
2017-02-26T02:06:57.182Z,1000.9
2017-02-26T02:09:30.115Z,1000.8
2017-02-26T02:12:02.607Z,1000.8
2017-02-26T02:14:35.508Z,1000.8
2017-02-26T02:17:07.994Z,1000.8
2017-02-26T02:19:40.528Z,1000.7
2017-02-26T02:22:13.002Z,1000.7
2017-02-26T02:24:45.505Z,1000.7
2017-02-26T02:27:17.998Z,1000.7
2017-02-26T02:29:50.512Z,1000.6
2017-02-26T02:32:22.999Z,1000.6
2017-02-26T02:34:55.486Z,1000.6
2017-02-26T02:37:27.965Z,1000.6
2017-02-26T02:40:00.860Z,1000.6
2017-02-26T02:42:33.774Z,1000.6
2017-02-26T02:45:06.257Z,1000.5
2017-02-26T02:47:38.795Z,1000.5
2017-02-26T02:50:11.258Z,1000.5
2017-02-26T02:52:43.742Z,1000.5
2017-02-26T02:55:16.643Z,1000.5
2017-02-26T02:57:49.152Z,1000.5
2017-02-26T03:00:21.635Z,1000.5
2017-02-26T03:02:54.112Z,1000.5
2017-02-26T03:05:26.610Z,1000.5
2017-02-26T03:07:59.115Z,1000.4
2017-02-26T03:10:32.037Z,1000.5
2017-02-26T03:13:04.520Z,1000.4
2017-02-26T03:15:37.024Z,1000.4
2017-02-26T03:18:09.945Z,1000.4
2017-02-26T03:20:42.846Z,1000.4
2017-02-26T03:23:15.329Z,1000.5
2017-02-26T03:25:47.837Z,1000.4
2017-02-26T03:28:20.345Z,1000.4
2017-02-26T03:30:52.848Z,1000.4
2017-02-26T03:33:25.359Z,1000.4
2017-02-26T03:35:58.263Z,1000.3
2017-02-26T03:38:30.768Z,1000.3
2017-02-26T03:41:03.259Z,1000.4
2017-02-26T03:43:35.743Z,1000.4
2017-02-26T03:46:08.228Z,1000.4
2017-02-26T03:48:40.750Z,1000.4
2017-02-26T03:51:13.264Z,1000.3
2017-02-26T03:53:45.762Z,1000.4
2017-02-26T03:56:18.678Z,1000.3
2017-02-26T03:58:51.179Z,1000.3
2017-02-26T04:01:23.726Z,1000.2
2017-02-26T04:03:56.210Z,1000.3
2017-02-26T04:06:28.692Z,1000.3
2017-02-26T04:09:01.186Z,1000.2
2017-02-26T04:11:33.681Z,1000.2
2017-02-26T04:14:06.593Z,1000.2
2017-02-26T04:16:39.089Z,1000.2
2017-02-26T04:19:11.573Z,1000.2
2017-02-26T04:21:44.264Z,1000.2
2017-02-26T04:24:17.175Z,1000.2
2017-02-26T04:26:49.665Z,1000.1
2017-02-26T04:29:22.144Z,1000.1
2017-02-26T04:31:54.626Z,1000.1
2017-02-26T04:34:27.531Z,1000.1
2017-02-26T04:37:00.019Z,1000.2
2017-02-26T04:39:32.516Z,1000.1
2017-02-26T04:42:05.010Z,1000
2017-02-26T04:44:37.945Z,1000.1
2017-02-26T04:47:10.838Z,1000.1
2017-02-26T04:49:43.317Z,1000.1
2017-02-26T04:52:16.672Z,1000.1
2017-02-26T04:54:49.577Z,1000
2017-02-26T04:57:22.082Z,999.9
2017-02-26T04:59:54.993Z,1000
2017-02-26T05:02:27.491Z,999.9
2017-02-26T05:05:00.411Z,999.9
2017-02-26T05:07:33.744Z,999.9
2017-02-26T05:10:06.220Z,999.9
2017-02-26T05:12:38.697Z,999.9
2017-02-26T05:15:12.064Z,999.8
2017-02-26T05:17:44.548Z,999.8
2017-02-26T05:20:17.017Z,999.9
2017-02-26T05:22:49.531Z,999.8
2017-02-26T05:25:22.019Z,999.8
2017-02-26T05:27:54.514Z,999.7
2017-02-26T05:30:27.032Z,999.8
2017-02-26T05:32:59.506Z,999.8
2017-02-26T05:35:32.153Z,999.8
2017-02-26T05:38:04.678Z,999.8
2017-02-26T05:40:37.143Z,999.8
2017-02-26T05:43:09.618Z,999.8
2017-02-26T05:45:42.103Z,999.7
2017-02-26T05:48:14.589Z,999.7
2017-02-26T05:50:47.095Z,999.7
2017-02-26T05:53:19.574Z,999.7
2017-02-26T05:55:52.088Z,999.7
2017-02-26T05:58:24.600Z,999.7
2017-02-26T06:00:57.094Z,999.7
2017-02-26T06:03:29.606Z,999.7
2017-02-26T06:06:02.131Z,999.7
2017-02-26T06:08:35.036Z,999.6
2017-02-26T06:11:07.985Z,999.7
2017-02-26T06:13:40.885Z,999.7
2017-02-26T06:16:13.809Z,999.7
2017-02-26T06:18:46.405Z,999.6
2017-02-26T06:21:18.898Z,999.7
2017-02-26T06:23:51.388Z,999.6
2017-02-26T06:26:23.881Z,999.7
2017-02-26T06:28:56.345Z,999.7
2017-02-26T06:31:28.872Z,999.6
2017-02-26T06:34:01.371Z,999.6
2017-02-26T06:36:33.869Z,999.7
2017-02-26T06:39:06.357Z,999.7
2017-02-26T06:41:38.851Z,999.7
2017-02-26T06:53:06.311Z,999.7
2017-02-26T06:55:38.968Z,999.8
2017-02-26T06:58:12.041Z,999.7
2017-02-26T07:00:44.757Z,999.8
2017-02-26T07:03:17.758Z,999.8
2017-02-26T07:05:50.333Z,999.8
2017-02-26T07:08:24.046Z,999.8
2017-02-26T07:10:57.183Z,999.8
2017-02-26T07:13:30.287Z,999.8
2017-02-26T07:16:02.892Z,999.8
2017-02-26T07:18:35.454Z,999.8
2017-02-26T07:21:08.126Z,999.9
2017-02-26T07:23:40.710Z,999.8
2017-02-26T07:26:13.204Z,999.9
2017-02-26T07:28:45.690Z,999.8
2017-02-26T07:31:18.201Z,999.8
2017-02-26T07:33:51.547Z,999.8
2017-02-26T07:36:24.062Z,999.8
2017-02-26T07:38:56.550Z,999.7
2017-02-26T07:41:29.053Z,999.8
2017-02-26T07:44:01.540Z,999.7
2017-02-26T07:46:34.029Z,999.8
2017-02-26T07:49:07.363Z,999.8
2017-02-26T07:51:40.251Z,999.8
2017-02-26T07:54:12.788Z,999.8
2017-02-26T07:56:45.283Z,999.8
2017-02-26T07:59:17.787Z,999.8
2017-02-26T08:01:50.271Z,999.8
2017-02-26T08:04:23.605Z,999.8
2017-02-26T08:06:56.117Z,999.8
2017-02-26T08:09:28.848Z,999.8
2017-02-26T08:12:01.347Z,999.8
2017-02-26T08:14:33.850Z,999.9
2017-02-26T08:17:06.353Z,1000
2017-02-26T08:19:39.280Z,1000
2017-02-26T08:22:12.204Z,1000
2017-02-26T08:24:44.697Z,1000
2017-02-26T08:27:17.174Z,999.9
2017-02-26T08:29:49.652Z,1000
2017-02-26T08:32:22.161Z,1000
2017-02-26T08:34:54.841Z,1000
2017-02-26T08:37:27.328Z,1000
2017-02-26T08:40:00.658Z,1000
2017-02-26T08:42:33.132Z,1000
2017-02-26T08:45:05.631Z,1000
2017-02-26T08:47:38.145Z,1000
2017-02-26T08:50:11.050Z,1000
2017-02-26T08:52:43.548Z,999.9
2017-02-26T08:55:16.050Z,999.9
2017-02-26T08:57:48.996Z,999.9
2017-02-26T09:00:21.486Z,999.9
2017-02-26T09:02:54.834Z,999.8
2017-02-26T09:05:27.337Z,999.9
2017-02-26T09:07:59.841Z,1000
2017-02-26T09:10:32.336Z,1000
2017-02-26T09:13:04.838Z,999.9
2017-02-26T09:15:37.360Z,1000
2017-02-26T09:18:10.318Z,1000
2017-02-26T09:20:43.250Z,1000
2017-02-26T09:23:15.749Z,1000
2017-02-26T09:25:48.673Z,1000
2017-02-26T09:28:21.172Z,1000.1
2017-02-26T09:30:53.663Z,1000.1
2017-02-26T09:33:26.155Z,1000.1
2017-02-26T09:35:58.631Z,1000.1
2017-02-26T09:38:31.123Z,1000.1
2017-02-26T09:41:03.599Z,1000.2
2017-02-26T09:43:36.097Z,1000.2
2017-02-26T09:46:08.585Z,1000.1
2017-02-26T09:48:41.055Z,1000.1
2017-02-26T09:51:13.550Z,1000.1
2017-02-26T09:53:46.455Z,1000.2
2017-02-26T09:56:18.924Z,1000.1
2017-02-26T09:58:51.436Z,1000.2
2017-02-26T10:01:24.754Z,1000.1
2017-02-26T10:03:57.296Z,1000.2
2017-02-26T10:06:29.794Z,1000.1
2017-02-26T10:09:02.288Z,1000
2017-02-26T10:11:34.797Z,1000
2017-02-26T10:14:07.290Z,1000
2017-02-26T10:16:39.784Z,999.9
2017-02-26T10:19:12.267Z,999.9
2017-02-26T10:21:45.172Z,999.9
2017-02-26T10:24:18.108Z,999.8
2017-02-26T10:26:50.589Z,999.9
2017-02-26T10:29:23.078Z,999.9
2017-02-26T10:31:55.997Z,999.9
2017-02-26T10:34:28.487Z,999.9
2017-02-26T10:37:00.981Z,999.9
2017-02-26T10:39:33.907Z,999.9
2017-02-26T10:42:06.412Z,999.9
2017-02-26T10:44:39.312Z,999.9
2017-02-26T10:47:12.656Z,999.9
2017-02-26T10:49:45.136Z,999.9
2017-02-26T10:52:17.628Z,999.9
2017-02-26T10:54:50.322Z,999.9
2017-02-26T10:57:23.660Z,999.9
2017-02-26T10:59:56.178Z,999.9
2017-02-26T11:02:29.088Z,1000
2017-02-26T11:05:01.997Z,1000.1
2017-02-26T11:07:35.346Z,1000.2
2017-02-26T11:10:07.849Z,1000.3
2017-02-26T11:12:40.349Z,1000.2
2017-02-26T11:15:13.264Z,1000.2
2017-02-26T11:17:46.184Z,1000.2
2017-02-26T11:20:18.794Z,1000.2
2017-02-26T11:22:51.527Z,1000.2
2017-02-26T11:25:24.036Z,1000.3
2017-02-26T11:27:56.558Z,1000.2
2017-02-26T11:30:29.059Z,1000.3
2017-02-26T11:33:01.570Z,1000.2
2017-02-26T11:35:34.082Z,1000.1
2017-02-26T11:38:06.555Z,1000
2017-02-26T11:40:39.043Z,999.9
2017-02-26T11:43:11.550Z,999.9
2017-02-26T11:45:44.506Z,1000
2017-02-26T11:48:17.014Z,999.9
2017-02-26T11:50:49.934Z,999.9
2017-02-26T11:53:22.446Z,1000.1
2017-02-26T11:55:54.961Z,1000.1
2017-02-26T11:58:27.900Z,1000
2017-02-26T12:01:00.393Z,1000.1
2017-02-26T12:03:32.884Z,1000.1
2017-02-26T12:06:05.785Z,1000.1
2017-02-26T12:08:38.279Z,1000.1
2017-02-26T12:11:10.768Z,999.9
2017-02-26T12:13:43.279Z,1000
2017-02-26T12:16:15.782Z,1000
2017-02-26T12:18:48.263Z,1000
2017-02-26T12:21:20.766Z,1000
2017-02-26T12:23:53.684Z,999.9
2017-02-26T12:26:26.167Z,999.9
2017-02-26T12:28:58.670Z,999.9
2017-02-26T12:31:32.010Z,999.8
2017-02-26T12:34:04.731Z,999.9
2017-02-26T12:36:37.219Z,999.8
2017-02-26T12:39:09.714Z,999.9
2017-02-26T12:41:42.213Z,999.9
2017-02-26T12:44:15.116Z,999.9
2017-02-26T12:46:47.615Z,999.9
2017-02-26T12:49:20.536Z,999.9
2017-02-26T12:51:53.453Z,999.9
2017-02-26T12:54:25.945Z,999.9
2017-02-26T12:56:58.853Z,1000
2017-02-26T12:59:31.332Z,1000
2017-02-26T13:02:03.831Z,1000.1
2017-02-26T13:04:36.749Z,999.9
2017-02-26T13:07:09.263Z,1000
2017-02-26T13:09:42.384Z,1000
2017-02-26T13:12:14.867Z,999.9
2017-02-26T13:14:47.360Z,1000
2017-02-26T13:17:19.850Z,999.9
2017-02-26T13:19:52.397Z,999.9
2017-02-26T13:22:25.290Z,999.9
2017-02-26T13:24:58.224Z,999.9
2017-02-26T13:27:30.729Z,999.9
2017-02-26T13:30:03.655Z,999.9
2017-02-26T13:32:36.640Z,999.9
2017-02-26T13:35:09.749Z,999.9
2017-02-26T13:37:42.658Z,999.9
2017-02-26T13:40:15.166Z,999.8
2017-02-26T13:42:47.643Z,999.9
2017-02-26T13:45:20.558Z,999.9
2017-02-26T13:47:53.475Z,999.9
2017-02-26T13:50:25.971Z,999.9
2017-02-26T13:52:58.478Z,999.9
2017-02-26T13:55:30.956Z,999.9
2017-02-26T13:58:03.455Z,999.8
2017-02-26T14:00:35.939Z,999.8
2017-02-26T14:03:08.427Z,999.9
2017-02-26T14:05:40.908Z,999.9
2017-02-26T14:08:13.435Z,999.9
2017-02-26T14:10:46.551Z,1000
2017-02-26T14:13:19.041Z,999.9
2017-02-26T14:15:51.555Z,999.9
2017-02-26T14:18:24.056Z,999.8
2017-02-26T14:20:56.542Z,999.9
2017-02-26T14:23:29.039Z,999.9
2017-02-26T14:26:01.536Z,999.9
2017-02-26T14:28:34.109Z,999.9
2017-02-26T14:31:06.582Z,999.9
2017-02-26T14:33:39.605Z,999.9
2017-02-26T14:36:12.959Z,999.9
2017-02-26T14:38:45.894Z,999.8
2017-02-26T14:41:18.386Z,999.8
2017-02-26T14:43:50.866Z,999.8
2017-02-26T14:46:23.772Z,999.9
2017-02-26T14:48:56.278Z,999.9
2017-02-26T14:51:28.772Z,999.9
2017-02-26T14:54:01.264Z,999.8
2017-02-26T14:56:34.174Z,999.8
2017-02-26T14:59:06.666Z,999.9
2017-02-26T15:01:39.169Z,999.8
2017-02-26T15:04:15.617Z,999.9
2017-02-26T15:06:50.345Z,999.8
2017-02-26T15:09:23.042Z,999.8
2017-02-26T15:11:55.526Z,999.8
2017-02-26T15:14:28.455Z,999.9
2017-02-26T15:17:00.951Z,1000
2017-02-26T15:19:33.462Z,1000
2017-02-26T15:22:06.869Z,999.9
2017-02-26T15:24:39.378Z,1000
2017-02-26T15:27:12.874Z,1000
2017-02-26T15:29:45.372Z,1000
2017-02-26T15:32:17.861Z,1000
2017-02-26T15:34:50.375Z,999.9
2017-02-26T15:37:22.884Z,1000
2017-02-26T15:39:55.376Z,1000.1
2017-02-26T15:42:27.867Z,1000
2017-02-26T15:45:00.369Z,1000
2017-02-26T15:47:32.858Z,999.9
2017-02-26T15:50:05.351Z,1000
2017-02-26T15:52:37.833Z,1000
2017-02-26T15:55:10.322Z,1000
2017-02-26T15:57:42.836Z,1000.1
2017-02-26T16:00:15.327Z,1000
2017-02-26T16:02:48.683Z,1000
2017-02-26T16:05:21.163Z,1000
2017-02-26T16:07:53.662Z,1000.1
2017-02-26T16:10:26.587Z,1000
2017-02-26T16:12:59.491Z,1000
2017-02-26T16:15:31.977Z,1000
2017-02-26T16:18:04.481Z,1000.1
2017-02-26T16:20:38.241Z,1000.1
2017-02-26T16:23:10.735Z,1000.1
2017-02-26T16:25:43.229Z,1000.1
2017-02-26T16:28:16.154Z,1000.1
2017-02-26T16:30:49.210Z,1000.1
2017-02-26T16:33:22.349Z,1000.1
2017-02-26T16:35:54.863Z,1000.1
2017-02-26T16:38:27.497Z,1000.1
2017-02-26T16:41:00.577Z,1000.1
2017-02-26T16:43:33.504Z,1000.1
2017-02-26T16:46:06.921Z,1000.1
2017-02-26T16:48:39.470Z,1000.1
2017-02-26T16:51:11.950Z,1000.1
2017-02-26T16:53:44.922Z,1000.2
2017-02-26T16:56:17.452Z,1000.2
2017-02-26T16:58:50.459Z,1000.2
2017-02-26T17:01:23.081Z,1000.2
2017-02-26T17:03:55.559Z,1000.3
2017-02-26T17:06:28.059Z,1000.4
2017-02-26T17:09:00.554Z,1000.4
2017-02-26T17:11:33.076Z,1000.4
2017-02-26T17:14:05.560Z,1000.4
2017-02-26T17:16:38.469Z,1000.5
2017-02-26T17:19:10.975Z,1000.5
2017-02-26T17:21:43.893Z,1000.5
2017-02-26T17:24:16.389Z,1000.5
2017-02-26T17:26:49.322Z,1000.5
2017-02-26T17:29:21.834Z,1000.6
2017-02-26T17:31:54.335Z,1000.6
2017-02-26T17:34:27.264Z,1000.5
2017-02-26T17:37:00.180Z,1000.5
2017-02-26T17:39:33.081Z,1000.5
2017-02-26T17:42:05.568Z,1000.5
2017-02-26T17:44:38.473Z,1000.5
2017-02-26T17:47:10.970Z,1000.6
2017-02-26T17:49:43.478Z,1000.6
2017-02-26T17:52:16.020Z,1000.7
2017-02-26T17:54:48.501Z,1000.7
2017-02-26T17:57:20.981Z,1000.7
2017-02-26T17:59:53.504Z,1000.7
2017-02-26T18:02:25.990Z,1000.7
2017-02-26T18:04:58.478Z,1000.7
2017-02-26T18:07:30.979Z,1000.7
2017-02-26T18:10:03.469Z,1000.7
2017-02-26T18:12:35.968Z,1000.7
2017-02-26T18:15:08.447Z,1000.6
2017-02-26T18:17:41.368Z,1000.6
2017-02-26T18:20:13.926Z,1000.5
2017-02-26T18:22:46.417Z,1000.5
2017-02-26T18:25:18.920Z,1000.5
2017-02-26T18:27:51.441Z,1000.5
2017-02-26T18:30:24.352Z,1000.6
2017-02-26T18:32:56.837Z,1000.5
2017-02-26T18:35:29.333Z,1000.6
2017-02-26T18:38:01.818Z,1000.5
2017-02-26T18:40:34.724Z,1000.6
2017-02-26T18:43:07.229Z,1000.6
2017-02-26T18:45:39.705Z,1000.7
2017-02-26T18:48:13.084Z,1000.8
2017-02-26T18:50:45.988Z,1000.8
2017-02-26T18:53:18.487Z,1000.8
2017-02-26T18:55:51.375Z,1000.8
2017-02-26T18:58:24.289Z,1000.7
2017-02-26T19:00:57.219Z,1000.7
2017-02-26T19:03:29.744Z,1000.7
2017-02-26T19:06:03.071Z,1000.7
2017-02-26T19:08:35.559Z,1000.7
2017-02-26T19:11:08.471Z,1000.8
2017-02-26T19:13:40.961Z,1000.7
2017-02-26T19:16:13.471Z,1000.7
2017-02-26T19:18:46.367Z,1000.8
2017-02-26T19:21:18.854Z,1000.7
2017-02-26T19:23:51.374Z,1000.7
2017-02-26T19:26:23.846Z,1000.7
2017-02-26T19:28:56.357Z,1000.7
2017-02-26T19:31:28.826Z,1000.7
2017-02-26T19:34:01.748Z,1000.7
2017-02-26T19:36:34.659Z,1000.6
2017-02-26T19:39:07.559Z,1000.6
2017-02-26T19:41:40.064Z,1000.6
2017-02-26T19:44:12.980Z,1000.6
2017-02-26T19:46:45.932Z,1000.6
2017-02-26T19:49:18.430Z,1000.6
2017-02-26T19:51:50.901Z,1000.6
2017-02-26T19:54:23.831Z,1000.6
2017-02-26T19:56:56.326Z,1000.6
2017-02-26T19:59:29.447Z,1000.5
2017-02-26T20:02:01.939Z,1000.6
2017-02-26T20:04:34.872Z,1000.6
2017-02-26T20:07:07.353Z,1000.6
2017-02-26T20:09:40.271Z,1000.6
2017-02-26T20:12:13.194Z,1000.6
2017-02-26T20:14:46.109Z,1000.6
2017-02-26T20:17:18.618Z,1000.6
2017-02-26T20:19:51.118Z,1000.6
2017-02-26T20:22:24.212Z,1000.6
2017-02-26T20:24:57.132Z,1000.6
2017-02-26T20:27:29.625Z,1000.5
2017-02-26T20:30:02.520Z,1000.5
2017-02-26T20:32:35.431Z,1000.5
2017-02-26T20:35:07.914Z,1000.5
2017-02-26T20:37:40.413Z,1000.5
2017-02-26T20:40:12.909Z,1000.4
2017-02-26T20:42:45.400Z,1000.3
2017-02-26T20:45:17.892Z,1000.4
2017-02-26T20:47:50.382Z,1000.3
2017-02-26T20:50:22.874Z,1000.3
2017-02-26T20:52:55.362Z,1000.3
2017-02-26T20:55:27.862Z,1000.4
2017-02-26T20:58:00.352Z,1000.4
2017-02-26T21:00:33.048Z,1000.3
2017-02-26T21:03:05.535Z,1000.3
2017-02-26T21:05:38.034Z,1000.3
2017-02-26T21:08:10.962Z,1000.3
2017-02-26T21:10:44.052Z,1000.4
2017-02-26T21:13:16.537Z,1000.4
2017-02-26T21:15:50.071Z,1000.5
2017-02-26T21:18:22.996Z,1000.4
2017-02-26T21:20:55.500Z,1000.4
2017-02-26T21:23:27.971Z,1000.4
2017-02-26T21:26:00.467Z,1000.5
2017-02-26T21:28:32.965Z,1000.5
2017-02-26T21:31:05.466Z,1000.4
2017-02-26T21:33:37.947Z,1000.4
2017-02-26T21:36:10.435Z,1000.4
2017-02-26T21:38:42.956Z,1000.4
2017-02-26T21:41:15.444Z,1000.4
2017-02-26T21:43:48.350Z,1000.4
2017-02-26T21:46:20.843Z,1000.4
2017-02-26T21:48:54.402Z,1000.3
2017-02-26T21:51:26.890Z,1000.3
2017-02-26T21:54:00.240Z,1000.2
2017-02-26T21:56:33.164Z,1000.2
2017-02-26T21:59:06.081Z,1000.3
2017-02-26T22:01:39.005Z,1000.3
2017-02-26T22:04:11.511Z,1000.2
2017-02-26T22:06:44.006Z,1000.3
2017-02-26T22:09:16.921Z,1000.2
2017-02-26T22:11:49.839Z,1000.2
2017-02-26T22:14:22.752Z,1000.2
2017-02-26T22:16:55.282Z,1000.2
2017-02-26T22:19:28.196Z,1000.2
2017-02-26T22:22:00.721Z,1000.2
2017-02-26T22:24:33.220Z,1000.2
2017-02-26T22:27:05.694Z,1000.2
2017-02-26T22:29:38.203Z,1000.2
2017-02-26T22:32:11.168Z,1000.2
2017-02-26T22:34:43.685Z,1000.1
2017-02-26T22:37:16.178Z,1000.1
2017-02-26T22:39:49.113Z,1000.1
2017-02-26T22:42:21.617Z,1000
2017-02-26T22:44:54.124Z,1000
2017-02-26T22:47:26.616Z,1000
2017-02-26T22:49:59.528Z,1000
2017-02-26T22:52:32.012Z,1000
2017-02-26T22:55:04.489Z,1000
2017-02-26T22:57:36.984Z,1000
2017-02-26T23:00:09.491Z,1000
2017-02-26T23:02:41.986Z,1000
2017-02-26T23:05:14.481Z,1000
2017-02-26T23:07:46.961Z,1000
2017-02-26T23:10:19.474Z,999.9
2017-02-26T23:12:52.373Z,999.9
2017-02-26T23:15:24.857Z,999.9
2017-02-26T23:17:57.362Z,999.8
2017-02-26T23:20:30.274Z,999.8
2017-02-26T23:23:02.775Z,999.8
2017-02-26T23:25:35.265Z,999.8
2017-02-26T23:28:08.162Z,999.8
2017-02-26T23:30:40.653Z,999.7
2017-02-26T23:33:13.125Z,999.7
2017-02-26T23:35:46.030Z,999.7
2017-02-26T23:38:18.513Z,999.7
2017-02-26T23:40:51.016Z,999.7
2017-02-26T23:43:23.510Z,999.7
2017-02-26T23:45:55.992Z,999.7
2017-02-26T23:48:28.494Z,999.8
2017-02-26T23:51:01.012Z,999.7
2017-02-26T23:53:33.509Z,999.8
2017-02-26T23:56:06.000Z,999.7
2017-02-26T23:58:38.950Z,999.8
